Time;durP1;ratioP1;P1;durP2;ratioP2;P2;SDS_P1;SDS_P2;PMS_P1;PMS_P2;Temp;Humidity;BMP_temperature;BMP_pressure;BME280_temperature;BME280_humidity;BME280_pressure;Samples;Min_cycle;Max_cycle;Signal;HPM_P1;HPM_P2
2021/10/09 00:01:01;;;;;;;2.90;2.53;;;20.20;65.80;;;;;;3108445;28;20042;-84
2021/10/09 00:02:32;;;;;;;3.88;2.40;;;20.20;65.70;;;;;;3110493;28;20054;-83
2021/10/09 00:04:05;;;;;;;3.90;2.60;;;20.30;65.70;;;;;;3109866;28;20041;-84
2021/10/09 00:05:37;;;;;;;3.30;2.80;;;20.20;65.70;;;;;;3110270;28;20139;-84
2021/10/09 00:07:09;;;;;;;2.92;2.63;;;20.20;65.90;;;;;;3110567;28;20080;-85
2021/10/09 00:08:41;;;;;;;4.28;2.70;;;20.10;65.90;;;;;;3110247;28;20053;-85
2021/10/09 00:10:23;;;;;;;3.47;2.45;;;20.10;66.00;;;;;;3108674;28;20093;-85
2021/10/09 00:11:54;;;;;;;3.38;2.63;;;20.10;66.40;;;;;;3110287;28;20067;-84
2021/10/09 00:13:26;;;;;;;4.25;2.67;;;20.00;66.50;;;;;;3102803;28;20096;-84
2021/10/09 00:14:58;;;;;;;3.75;2.42;;;20.00;66.50;;;;;;3109685;28;20054;-85
2021/10/09 00:16:31;;;;;;;2.83;2.42;;;20.00;66.60;;;;;;3109239;28;20050;-85
2021/10/09 00:18:03;;;;;;;3.33;2.40;;;20.10;66.30;;;;;;3109881;28;20053;-84
2021/10/09 00:19:34;;;;;;;2.90;2.42;;;20.20;66.30;;;;;;3109633;28;20058;-85
2021/10/09 00:21:05;;;;;;;2.67;2.33;;;20.20;66.00;;;;;;3109543;28;20127;-84
2021/10/09 00:22:37;;;;;;;3.80;2.78;;;20.30;65.70;;;;;;3109057;28;20108;-85
2021/10/09 00:24:09;;;;;;;3.35;2.50;;;20.30;65.50;;;;;;3109403;28;20042;-85
2021/10/09 00:25:41;;;;;;;3.53;2.60;;;20.40;65.40;;;;;;3110085;28;20054;-84
2021/10/09 00:27:13;;;;;;;4.32;2.80;;;20.40;65.30;;;;;;3110129;28;20072;-85
2021/10/09 00:28:46;;;;;;;3.05;2.47;;;20.40;65.20;;;;;;3109505;28;20128;-85
2021/10/09 00:30:17;;;;;;;4.47;2.47;;;20.50;65.10;;;;;;3108389;28;20054;-84
2021/10/09 00:31:50;;;;;;;2.97;2.67;;;20.50;64.90;;;;;;3109937;28;20053;-85
2021/10/09 00:33:22;;;;;;;3.30;2.78;;;20.60;64.70;;;;;;3110460;28;20046;-85
2021/10/09 00:34:54;;;;;;;2.92;2.50;;;20.60;64.70;;;;;;3109579;28;20046;-84
2021/10/09 00:36:26;;;;;;;4.00;2.50;;;20.70;64.60;;;;;;3109934;28;20045;-85
2021/10/09 00:37:57;;;;;;;3.25;2.35;;;20.60;64.50;;;;;;3110373;28;20054;-85
2021/10/09 00:39:30;;;;;;;3.75;2.60;;;20.60;64.40;;;;;;3109670;28;20057;-86
2021/10/09 00:41:02;;;;;;;2.65;2.45;;;20.60;64.40;;;;;;3109105;28;20096;-85
2021/10/09 00:42:34;;;;;;;2.85;2.50;;;20.60;64.40;;;;;;3110144;28;20064;-85
2021/10/09 00:44:10;;;;;;;3.35;2.70;;;20.70;64.30;;;;;;3112357;28;20458;-85
2021/10/09 00:45:50;;;;;;;3.60;2.70;;;20.70;64.30;;;;;;3115999;28;20129;-85
2021/10/09 00:47:24;;;;;;;6.43;2.88;;;20.70;64.30;;;;;;3110272;28;20181;-84
2021/10/09 00:48:55;;;;;;;3.53;2.40;;;20.70;64.30;;;;;;3109592;28;20474;-86
2021/10/09 00:50:27;;;;;;;4.50;2.60;;;20.70;64.10;;;;;;3109184;28;20050;-84
2021/10/09 00:51:58;;;;;;;2.33;2.13;;;20.70;64.30;;;;;;3109993;28;20053;-84
2021/10/09 00:53:30;;;;;;;4.45;2.47;;;20.70;64.00;;;;;;3110243;28;20046;-86
2021/10/09 00:55:02;;;;;;;3.05;2.58;;;20.80;64.00;;;;;;3109236;28;20050;-84
2021/10/09 00:56:35;;;;;;;4.00;2.50;;;20.80;63.90;;;;;;3109936;28;20081;-85
2021/10/09 00:58:07;;;;;;;3.85;2.67;;;20.90;63.90;;;;;;3110174;28;20101;-85
2021/10/09 00:59:39;;;;;;;2.58;2.30;;;20.90;63.60;;;;;;3109272;28;20107;-86
2021/10/09 01:01:11;;;;;;;4.53;2.65;;;20.90;63.70;;;;;;3108913;28;20050;-85
2021/10/09 01:02:44;;;;;;;3.38;2.58;;;20.90;63.60;;;;;;3109957;28;20050;-86
2021/10/09 01:04:15;;;;;;;4.40;2.80;;;20.90;63.60;;;;;;3109750;28;20069;-85
2021/10/09 01:05:47;;;;;;;3.40;2.50;;;20.80;63.40;;;;;;3110143;28;20503;-85
2021/10/09 01:07:19;;;;;;;3.53;2.60;;;20.90;63.60;;;;;;3109790;28;20046;-85
2021/10/09 01:08:51;;;;;;;4.45;2.60;;;20.90;63.40;;;;;;3109807;28;20054;-83
2021/10/09 01:10:23;;;;;;;2.75;2.40;;;20.90;63.40;;;;;;3112392;28;20096;-84
2021/10/09 01:11:54;;;;;;;3.35;2.70;;;20.90;63.40;;;;;;3115509;28;20042;-84
2021/10/09 01:13:26;;;;;;;5.63;2.70;;;20.90;63.30;;;;;;3103301;28;20059;-84
2021/10/09 01:14:58;;;;;;;3.50;2.80;;;20.90;63.30;;;;;;3106054;28;20058;-84
2021/10/09 01:16:30;;;;;;;2.55;2.30;;;20.90;63.20;;;;;;3106284;28;20050;-84
2021/10/09 01:18:08;;;;;;;6.15;2.60;;;20.90;63.40;;;;;;3107823;28;20054;-84
2021/10/09 01:19:40;;;;;;;3.92;2.55;;;20.90;63.40;;;;;;3106102;28;20064;-83
2021/10/09 01:21:13;;;;;;;2.47;2.28;;;20.90;63.40;;;;;;3107800;28;20046;-84
2021/10/09 01:22:46;;;;;;;3.92;2.63;;;20.90;63.40;;;;;;3107726;28;20081;-83
2021/10/09 01:24:20;;;;;;;3.45;2.35;;;20.90;63.30;;;;;;3118336;28;20057;-84
2021/10/09 01:25:51;;;;;;;2.70;2.30;;;20.90;63.10;;;;;;3121049;28;20050;-84
2021/10/09 01:27:22;;;;;;;4.10;2.75;;;20.90;63.20;;;;;;3120874;28;20080;-84
2021/10/09 01:28:54;;;;;;;3.55;2.60;;;20.90;63.80;;;;;;3119852;28;20135;-83
2021/10/09 01:30:26;;;;;;;3.08;2.60;;;20.90;63.10;;;;;;3119109;28;20388;-83
2021/10/09 01:31:57;;;;;;;4.15;2.78;;;20.80;63.20;;;;;;3120276;28;20042;-83
2021/10/09 01:33:28;;;;;;;3.63;2.65;;;20.90;63.10;;;;;;3117202;28;20050;-84
2021/10/09 01:35:04;;;;;;;2.60;2.40;;;20.90;63.10;;;;;;3110707;28;20434;-83
2021/10/09 01:36:38;;;;;;;2.78;2.40;;;20.90;63.10;;;;;;3111566;28;20058;-83
2021/10/09 01:38:10;;;;;;;2.50;2.30;;;20.90;63.00;;;;;;3111308;28;20057;-83
2021/10/09 01:39:43;;;;;;;2.67;2.30;;;21.00;63.00;;;;;;3110161;28;20042;-83
2021/10/09 01:41:14;;;;;;;2.63;2.40;;;20.90;63.10;;;;;;3111602;28;20042;-83
2021/10/09 01:42:46;;;;;;;3.63;2.50;;;20.90;63.10;;;;;;3111722;28;20100;-83
2021/10/09 01:44:18;;;;;;;3.15;2.42;;;20.90;63.10;;;;;;3111123;28;20049;-83
2021/10/09 01:45:50;;;;;;;4.03;2.80;;;20.90;62.90;;;;;;3110745;28;20462;-83
2021/10/09 01:47:21;;;;;;;3.05;2.63;;;21.00;62.80;;;;;;3111618;28;20050;-83
2021/10/09 01:48:53;;;;;;;3.88;2.60;;;21.00;62.70;;;;;;3111024;28;20069;-83
2021/10/09 01:50:25;;;;;;;3.17;2.60;;;21.00;62.70;;;;;;3110925;28;20054;-83
2021/10/09 01:51:58;;;;;;;2.90;2.58;;;20.90;62.70;;;;;;3111363;28;20054;-83
2021/10/09 01:53:29;;;;;;;3.33;2.25;;;20.90;62.80;;;;;;3111284;28;20057;-83
2021/10/09 01:55:00;;;;;;;3.58;2.50;;;20.90;62.80;;;;;;3111097;28;20129;-83
2021/10/09 01:56:32;;;;;;;3.15;2.47;;;21.00;62.70;;;;;;3111694;28;20049;-83
2021/10/09 01:58:04;;;;;;;3.03;2.42;;;20.90;62.70;;;;;;3111186;28;20108;-83
2021/10/09 01:59:36;;;;;;;4.50;2.85;;;21.00;62.70;;;;;;3110978;28;20404;-83
2021/10/09 02:01:07;;;;;;;3.65;2.70;;;20.90;62.80;;;;;;3109753;28;20054;-83
2021/10/09 02:02:39;;;;;;;2.60;2.40;;;20.90;62.90;;;;;;3111015;28;20045;-83
2021/10/09 02:04:11;;;;;;;2.63;2.20;;;20.90;62.90;;;;;;3111138;28;20065;-83
2021/10/09 02:05:42;;;;;;;3.13;2.55;;;20.90;62.80;;;;;;3112236;28;20050;-83
2021/10/09 02:07:18;;;;;;;2.95;2.53;;;20.90;62.90;;;;;;3111996;28;20104;-83
2021/10/09 02:08:50;;;;;;;3.17;2.17;;;21.00;62.70;;;;;;3110763;28;20127;-83
2021/10/09 02:10:22;;;;;;;2.63;2.40;;;20.90;62.70;;;;;;3110240;28;20054;-83
2021/10/09 02:11:53;;;;;;;3.78;2.63;;;20.90;62.90;;;;;;3111172;28;20161;-83
2021/10/09 02:13:29;;;;;;;2.65;2.45;;;20.90;62.90;;;;;;3099671;28;20054;-83
2021/10/09 02:15:04;;;;;;;3.58;2.42;;;20.90;62.70;;;;;;3098891;28;20380;-83
2021/10/09 02:17:05;;;;;;;3.00;2.67;;;20.90;62.70;;;;;;3098697;28;20050;-83
2021/10/09 02:18:42;;;;;;;2.95;2.30;;;20.90;62.60;;;;;;3104948;28;20046;-84
2021/10/09 02:25:46;;;;;;;3.55;2.50;;;20.90;62.80;;;;;;3111158;28;20396;-83
2021/10/09 02:27:17;;;;;;;3.72;2.47;;;20.90;62.60;;;;;;3111238;28;20473;-83
2021/10/09 02:28:49;;;;;;;3.67;2.63;;;20.90;62.50;;;;;;3110886;28;20168;-83
2021/10/09 02:30:39;;;;;;;6.32;2.53;;;20.90;62.60;;;;;;3168688;27;20466;-82
2021/10/09 02:32:11;;;;;;;3.25;2.60;;;20.90;62.50;;;;;;3145667;28;20064;-83
2021/10/09 02:33:42;;;;;;;2.58;2.38;;;20.90;62.50;;;;;;3146058;28;20044;-83
2021/10/09 02:35:14;;;;;;;3.03;2.67;;;20.90;62.50;;;;;;3145086;28;20063;-82
2021/10/09 02:36:46;;;;;;;2.75;2.55;;;20.90;62.50;;;;;;3145395;28;20055;-83
2021/10/09 02:38:17;;;;;;;3.15;2.50;;;20.90;62.40;;;;;;3142915;28;20057;-83
2021/10/09 02:39:49;;;;;;;2.67;2.42;;;21.00;62.40;;;;;;3134478;28;20056;-82
2021/10/09 02:41:21;;;;;;;3.33;2.33;;;20.90;62.30;;;;;;3133810;28;20049;-83
2021/10/09 02:42:53;;;;;;;3.65;2.60;;;20.90;62.40;;;;;;3142948;28;20049;-82
2021/10/09 02:44:24;;;;;;;2.65;2.42;;;20.90;62.50;;;;;;3141390;28;20056;-83
2021/10/09 02:45:57;;;;;;;4.72;2.55;;;20.90;62.50;;;;;;3144653;28;20052;-83
2021/10/09 02:47:29;;;;;;;2.95;2.63;;;20.90;62.60;;;;;;3145385;28;20667;-83
2021/10/09 02:49:01;;;;;;;2.60;2.38;;;20.90;62.40;;;;;;3145051;28;20106;-83
2021/10/09 02:50:33;;;;;;;4.30;2.45;;;20.90;62.30;;;;;;3144454;28;20049;-83
2021/10/09 02:52:05;;;;;;;2.97;2.67;;;20.90;62.30;;;;;;3145132;28;20498;-83
2021/10/09 02:53:36;;;;;;;4.15;2.47;;;20.90;62.30;;;;;;3145477;28;20064;-82
2021/10/09 02:55:09;;;;;;;3.05;2.63;;;21.00;62.20;;;;;;3145115;28;20052;-83
2021/10/09 02:56:41;;;;;;;3.17;2.60;;;21.00;62.10;;;;;;3145433;28;20549;-83
2021/10/09 02:58:13;;;;;;;3.63;2.65;;;21.00;62.10;;;;;;3145407;28;20053;-82
2021/10/09 02:59:44;;;;;;;3.08;2.58;;;21.00;62.30;;;;;;3144002;28;20051;-83
2021/10/09 03:01:17;;;;;;;3.03;2.42;;;21.00;62.20;;;;;;3143755;28;20459;-83
2021/10/09 03:02:49;;;;;;;3.85;2.65;;;20.90;62.10;;;;;;3139610;28;20052;-83
2021/10/09 03:04:21;;;;;;;2.97;2.70;;;20.90;62.20;;;;;;3132768;28;20434;-83
2021/10/09 03:05:52;;;;;;;3.38;2.53;;;20.90;62.20;;;;;;3133530;28;20079;-83
2021/10/09 03:07:24;;;;;;;3.08;2.53;;;20.90;62.10;;;;;;3133125;28;20053;-83
2021/10/09 03:08:56;;;;;;;3.03;2.60;;;21.00;62.10;;;;;;3135785;28;20563;-83
2021/10/09 03:10:28;;;;;;;2.92;2.30;;;20.90;62.20;;;;;;3132137;28;20049;-83
2021/10/09 03:11:59;;;;;;;3.25;2.92;;;20.90;62.20;;;;;;3132996;28;20053;-83
2021/10/09 03:13:31;;;;;;;2.92;2.63;;;20.90;62.20;;;;;;3132993;28;20046;-83
2021/10/09 03:15:02;;;;;;;3.45;2.50;;;20.90;62.10;;;;;;3132529;28;20521;-83
2021/10/09 03:16:35;;;;;;;3.30;2.70;;;20.90;62.00;;;;;;3132735;28;20038;-82
2021/10/09 03:18:07;;;;;;;3.20;2.90;;;20.90;62.00;;;;;;3145096;28;20049;-83
2021/10/09 03:19:39;;;;;;;2.85;2.50;;;20.90;62.00;;;;;;3134515;28;20107;-83
2021/10/09 03:21:10;;;;;;;2.97;2.67;;;20.90;62.20;;;;;;3134210;28;20107;-82
2021/10/09 03:22:44;;;;;;;4.65;2.75;;;20.90;62.20;;;;;;3143621;28;20504;-83
2021/10/09 03:24:16;;;;;;;2.72;2.50;;;20.90;62.20;;;;;;3132577;28;20049;-82
2021/10/09 03:25:47;;;;;;;3.20;2.80;;;20.90;62.00;;;;;;3133369;28;20398;-82
2021/10/09 03:27:18;;;;;;;2.80;2.50;;;20.90;62.00;;;;;;3132663;28;20079;-83
2021/10/09 03:28:50;;;;;;;2.85;2.60;;;21.00;62.00;;;;;;3132347;28;20102;-83
2021/10/09 03:30:22;;;;;;;4.07;2.78;;;21.00;62.00;;;;;;3135854;28;20132;-83
2021/10/09 03:31:55;;;;;;;2.97;2.67;;;20.90;61.90;;;;;;3144349;28;20041;-82
2021/10/09 03:33:26;;;;;;;3.00;2.55;;;20.90;61.90;;;;;;3145168;28;20568;-83
2021/10/09 03:34:58;;;;;;;2.75;2.53;;;20.90;61.80;;;;;;3144624;28;20090;-83
2021/10/09 03:36:30;;;;;;;3.03;2.30;;;20.90;61.80;;;;;;3134676;28;20422;-82
2021/10/09 03:38:02;;;;;;;3.78;2.78;;;21.00;61.80;;;;;;3132124;28;20612;-83
2021/10/09 03:39:36;;;;;;;3.00;2.70;;;20.90;62.50;;;;;;3135129;28;20049;-83
2021/10/09 03:41:10;;;;;;;3.47;2.60;;;20.90;61.90;;;;;;3137480;28;20414;-83
2021/10/09 03:42:46;;;;;;;3.03;2.50;;;20.90;62.00;;;;;;3135468;28;20048;-83
2021/10/09 03:44:17;;;;;;;3.45;2.88;;;20.90;62.10;;;;;;3135126;28;20045;-83
2021/10/09 03:45:58;;;;;;;3.30;2.80;;;20.90;62.00;;;;;;3135487;28;20045;-83
2021/10/09 03:47:44;;;;;;;3.08;2.75;;;20.90;61.90;;;;;;3137084;28;20060;-82
2021/10/09 03:49:23;;;;;;;2.85;2.53;;;20.90;61.90;;;;;;3124598;28;20049;-83
2021/10/09 03:52:43;;;;;;;2.85;2.30;;;21.00;61.70;;;;;;3124567;28;20045;-83
2021/10/09 03:54:15;;;;;;;3.42;2.55;;;21.00;61.60;;;;;;3131278;28;20067;-83
2021/10/09 03:55:47;;;;;;;2.75;2.40;;;21.10;61.60;;;;;;3136903;28;20056;-83
2021/10/09 03:57:18;;;;;;;2.88;2.45;;;21.10;61.40;;;;;;3137009;28;20106;-82
2021/10/09 03:58:50;;;;;;;4.82;2.55;;;21.20;61.20;;;;;;3136635;28;20494;-82
2021/10/09 04:00:22;;;;;;;3.42;2.67;;;21.30;61.00;;;;;;3135112;28;20044;-83
2021/10/09 04:01:53;;;;;;;2.72;2.45;;;21.40;60.80;;;;;;3136668;28;20053;-82
2021/10/09 04:03:27;;;;;;;2.72;2.50;;;21.40;60.70;;;;;;3136633;28;20049;-82
2021/10/09 04:04:58;;;;;;;3.53;2.58;;;21.40;60.50;;;;;;3136321;28;20103;-83
2021/10/09 04:06:30;;;;;;;3.25;2.70;;;21.50;60.30;;;;;;3136718;28;20106;-83
2021/10/09 04:08:05;;;;;;;3.38;2.70;;;21.50;60.20;;;;;;3135925;28;20053;-83
2021/10/09 04:09:36;;;;;;;2.67;2.47;;;21.60;60.10;;;;;;3127105;28;20041;-83
2021/10/09 04:11:08;;;;;;;2.78;2.58;;;21.60;59.90;;;;;;3124564;28;20041;-83
2021/10/09 04:12:40;;;;;;;2.45;2.25;;;21.70;59.70;;;;;;3129324;28;20564;-83
2021/10/09 04:14:11;;;;;;;2.60;2.40;;;21.70;59.60;;;;;;3124538;28;20072;-82
2021/10/09 04:15:43;;;;;;;2.72;2.40;;;21.80;59.40;;;;;;3129072;28;20051;-83
2021/10/09 04:17:15;;;;;;;3.67;2.70;;;21.80;59.40;;;;;;3130362;28;20491;-82
2021/10/09 04:18:48;;;;;;;2.67;2.47;;;21.80;59.30;;;;;;3124408;28;20049;-83
2021/10/09 04:20:20;;;;;;;3.90;2.60;;;21.90;59.20;;;;;;3123890;28;20053;-83
2021/10/09 04:21:52;;;;;;;2.88;2.58;;;22.00;59.00;;;;;;3124361;28;20072;-83
2021/10/09 04:23:23;;;;;;;3.10;2.60;;;22.00;58.90;;;;;;3124382;28;20509;-83
2021/10/09 04:24:55;;;;;;;3.53;2.22;;;22.00;58.70;;;;;;3124134;28;20049;-83
2021/10/09 04:26:27;;;;;;;2.80;2.55;;;22.00;58.60;;;;;;3125060;28;20046;-82
2021/10/09 04:27:58;;;;;;;2.72;2.40;;;22.10;58.40;;;;;;3126838;28;20553;-83
2021/10/09 04:29:30;;;;;;;3.10;2.28;;;22.20;58.40;;;;;;3135842;28;20052;-84
2021/10/09 04:31:02;;;;;;;2.40;2.20;;;22.20;58.20;;;;;;3135151;28;20075;-84
2021/10/09 04:32:34;;;;;;;3.42;2.60;;;22.20;58.10;;;;;;3137314;28;20494;-83
2021/10/09 04:34:07;;;;;;;2.83;2.53;;;22.20;58.10;;;;;;3136048;28;20406;-83
2021/10/09 04:35:38;;;;;;;2.65;2.45;;;22.30;58.00;;;;;;3137463;28;20045;-83
2021/10/09 04:37:10;;;;;;;3.28;2.35;;;22.30;58.00;;;;;;3135954;28;20410;-83
2021/10/09 04:38:42;;;;;;;2.65;2.20;;;22.20;58.00;;;;;;3136946;28;20059;-83
2021/10/09 04:40:13;;;;;;;3.15;2.70;;;22.30;57.90;;;;;;3124380;28;20517;-83
2021/10/09 04:41:45;;;;;;;2.80;2.50;;;22.30;57.90;;;;;;3124273;28;20045;-82
2021/10/09 04:43:17;;;;;;;5.45;2.60;;;22.30;57.80;;;;;;3131104;28;20048;-83
2021/10/09 04:44:48;;;;;;;4.07;2.50;;;22.30;57.70;;;;;;3136677;28;20053;-82
2021/10/09 04:46:20;;;;;;;3.03;2.67;;;22.40;57.60;;;;;;3136209;28;20052;-83
2021/10/09 04:47:52;;;;;;;4.20;2.60;;;22.40;57.60;;;;;;3136760;28;20053;-83
2021/10/09 04:49:25;;;;;;;3.67;2.50;;;22.30;57.50;;;;;;3136412;28;20045;-83
2021/10/09 04:50:57;;;;;;;4.68;2.55;;;22.40;57.50;;;;;;3135792;28;20067;-84
2021/10/09 04:52:29;;;;;;;2.92;2.40;;;22.40;57.50;;;;;;3136765;28;20476;-83
2021/10/09 04:54:00;;;;;;;3.58;2.70;;;22.40;57.40;;;;;;3135541;28;20479;-83
2021/10/09 04:55:32;;;;;;;4.18;2.72;;;22.40;57.60;;;;;;3132321;28;20446;-84
2021/10/09 04:57:04;;;;;;;6.30;3.05;;;22.40;57.80;;;;;;3123731;28;20049;-84
2021/10/09 04:58:36;;;;;;;3.47;3.00;;;22.50;57.70;;;;;;3123897;28;20057;-84
2021/10/09 05:00:09;;;;;;;2.50;2.30;;;22.50;57.50;;;;;;3133161;28;20494;-84
2021/10/09 05:01:40;;;;;;;2.95;2.65;;;22.50;57.50;;;;;;3127343;28;20491;-84
2021/10/09 05:03:12;;;;;;;3.40;2.58;;;22.50;57.50;;;;;;3123109;28;20061;-84
2021/10/09 05:04:45;;;;;;;5.00;2.40;;;22.50;57.60;;;;;;3122416;28;20099;-84
2021/10/09 05:06:17;;;;;;;5.55;2.53;;;22.50;57.50;;;;;;3133630;28;20193;-85
2021/10/09 05:07:49;;;;;;;3.20;2.50;;;22.50;57.70;;;;;;3134214;28;20053;-85
2021/10/09 05:09:21;;;;;;;8.52;2.72;;;22.50;57.70;;;;;;3130454;28;20497;-84
2021/10/09 05:10:53;;;;;;;9.15;2.92;;;22.50;58.20;;;;;;3122979;28;20046;-87
2021/10/09 05:12:25;;;;;;;9.05;2.55;;;22.50;58.90;;;;;;3130678;28;20713;-84
2021/10/09 05:13:56;;;;;;;13.60;2.92;;;22.40;59.00;;;;;;3122523;28;20100;-84
2021/10/09 05:15:28;;;;;;;8.02;3.05;;;22.50;59.20;;;;;;3122117;28;20486;-84
2021/10/09 05:17:00;;;;;;;9.15;2.58;;;22.40;59.30;;;;;;3123102;28;20049;-84
2021/10/09 05:18:31;;;;;;;8.95;2.75;;;22.40;59.20;;;;;;3122859;28;20053;-84
2021/10/09 05:20:06;;;;;;;7.28;2.80;;;22.40;59.50;;;;;;3121226;28;20049;-86
2021/10/09 05:21:38;;;;;;;10.80;3.47;;;22.40;59.50;;;;;;3127092;28;20486;-83
2021/10/09 05:23:09;;;;;;;9.93;2.92;;;22.40;59.40;;;;;;3127800;28;20036;-85
2021/10/09 05:24:41;;;;;;;8.60;2.80;;;22.40;59.50;;;;;;3134828;28;20643;-83
2021/10/09 05:26:13;;;;;;;14.95;3.10;;;22.40;59.90;;;;;;3135493;28;20052;-84
2021/10/09 05:27:52;;;;;;;13.80;3.00;;;22.40;60.00;;;;;;3135280;28;20111;-84
2021/10/09 05:29:24;;;;;;;11.38;2.72;;;22.50;59.80;;;;;;3133883;28;20128;-84
2021/10/09 05:30:58;;;;;;;11.40;3.00;;;22.50;59.70;;;;;;3126057;28;20069;-84
2021/10/09 05:32:32;;;;;;;14.20;2.88;;;22.40;59.50;;;;;;3135543;28;20076;-85
2021/10/09 05:34:03;;;;;;;8.18;2.85;;;22.40;59.50;;;;;;3134960;28;20131;-84
2021/10/09 05:35:36;;;;;;;6.60;2.70;;;22.40;59.70;;;;;;3135212;28;20094;-84
2021/10/09 05:37:08;;;;;;;7.03;2.70;;;22.40;59.60;;;;;;3134990;28;20099;-84
2021/10/09 05:38:40;;;;;;;19.10;2.60;;;22.40;59.30;;;;;;3133983;28;20562;-85
2021/10/09 05:40:12;;;;;;;9.65;2.63;;;22.50;59.60;;;;;;3120771;28;20045;-84
2021/10/09 05:41:44;;;;;;;13.40;2.93;;;22.50;60.10;;;;;;3125148;28;20045;-83
2021/10/09 05:43:16;;;;;;;14.38;2.92;;;22.60;60.00;;;;;;3122928;28;20490;-84
2021/10/09 05:44:50;;;;;;;7.17;2.50;;;22.70;59.80;;;;;;3133243;28;20052;-83
2021/10/09 05:46:23;;;;;;;12.48;2.90;;;22.70;59.70;;;;;;3133621;28;20296;-84
2021/10/09 05:47:54;;;;;;;;;;;22.70;60.00;;;;;;3134831;28;20049;-84
2021/10/09 05:49:26;;;;;;;11.18;3.10;;;22.70;59.80;;;;;;3133527;28;19920;-84
2021/10/09 05:51:02;;;;;;;26.80;3.25;;;22.80;59.80;;;;;;3125471;28;20076;-84
2021/10/09 05:52:38;;;;;;;15.85;3.30;;;22.80;59.80;;;;;;3122134;28;20057;-84
2021/10/09 05:54:18;;;;;;;15.15;2.88;;;22.80;59.50;;;;;;3129693;28;20048;-84
2021/10/09 05:55:55;;;;;;;12.40;3.22;;;22.80;59.40;;;;;;3135331;28;20080;-85
2021/10/09 05:57:32;;;;;;;14.73;3.22;;;22.80;59.20;;;;;;3135235;28;20061;-85
2021/10/09 05:59:26;;;;;;;14.38;3.22;;;22.80;59.00;;;;;;3134383;28;20128;-83
2021/10/09 06:44:24;;;;;;;19.52;6.60;;;22.70;53.40;;;;;;3095103;28;20045;-88
2021/10/09 06:46:22;;;;;;;18.80;6.45;;;22.70;53.70;;;;;;3114461;28;20066;-89
2021/10/09 06:48:05;;;;;;;15.00;6.97;;;22.70;53.40;;;;;;3110068;28;20049;-89
2021/10/09 07:00:39;;;;;;;17.08;6.80;;;22.60;53.50;;;;;;3107557;28;20042;-87
2021/10/09 07:02:12;;;;;;;18.58;6.63;;;22.60;54.40;;;;;;3109578;28;20077;-90
2021/10/09 07:03:43;;;;;;;16.88;6.68;;;22.70;54.60;;;;;;3108314;28;20498;-90
2021/10/09 07:05:15;;;;;;;27.08;6.85;;;22.70;54.40;;;;;;3108888;28;20639;-90
2021/10/09 07:06:48;;;;;;;18.90;6.80;;;22.70;54.50;;;;;;3110494;28;20088;-88
2021/10/09 07:08:21;;;;;;;27.65;7.18;;;22.70;54.50;;;;;;3110001;28;20308;-87
2021/10/09 07:09:53;;;;;;;14.82;6.30;;;22.70;54.00;;;;;;3105942;28;20101;-86
2021/10/09 07:11:25;;;;;;;16.88;6.25;;;22.70;53.60;;;;;;3107384;28;20463;-91
2021/10/09 07:12:58;;;;;;;17.50;6.78;;;22.70;52.90;;;;;;3109949;28;20056;-91
2021/10/09 07:14:30;;;;;;;15.98;6.80;;;22.70;52.70;;;;;;3109519;28;20054;-92
2021/10/09 07:16:02;;;;;;;19.40;6.82;;;22.70;52.80;;;;;;3109436;28;20062;-91
2021/10/09 07:17:33;;;;;;;19.92;7.10;;;22.60;52.70;;;;;;3112623;28;20514;-91
2021/10/09 07:19:05;;;;;;;18.33;7.22;;;22.50;52.70;;;;;;3112086;28;20495;-91
2021/10/09 07:20:37;;;;;;;19.83;7.72;;;22.50;52.60;;;;;;3112259;28;20772;-91
2021/10/09 07:22:09;;;;;;;14.82;6.88;;;22.50;52.60;;;;;;3112450;28;20049;-91
2021/10/09 07:23:41;;;;;;;16.33;7.43;;;22.50;52.40;;;;;;3112569;28;20063;-92
2021/10/09 07:25:13;;;;;;;18.73;7.32;;;22.50;52.20;;;;;;3112145;28;20517;-91
2021/10/09 07:26:44;;;;;;;15.10;7.25;;;22.50;52.20;;;;;;3112456;28;20553;-92
2021/10/09 07:28:17;;;;;;;16.25;7.30;;;22.50;52.30;;;;;;3110059;28;20072;-91
2021/10/09 07:29:49;;;;;;;19.85;7.20;;;22.50;52.10;;;;;;3099465;28;20046;-91
2021/10/09 07:31:21;;;;;;;15.75;6.90;;;22.50;52.00;;;;;;3099274;28;20050;-91
2021/10/09 07:32:53;;;;;;;15.70;7.80;;;22.50;52.00;;;;;;3100124;28;20109;-91
2021/10/09 07:34:24;;;;;;;15.38;6.88;;;22.50;52.00;;;;;;3099357;28;20050;-92
2021/10/09 07:35:56;;;;;;;16.52;6.68;;;22.60;51.80;;;;;;3105842;28;20038;-91
2021/10/09 07:37:28;;;;;;;14.40;7.15;;;22.50;51.70;;;;;;3112313;28;20050;-91
2021/10/09 07:39:00;;;;;;;14.13;7.20;;;22.50;51.70;;;;;;3112086;28;20046;-92
2021/10/09 07:40:32;;;;;;;14.15;7.60;;;22.50;52.20;;;;;;3112377;28;20054;-91
2021/10/09 07:42:04;;;;;;;19.52;7.55;;;22.60;51.50;;;;;;3112236;28;20060;-91
2021/10/09 07:43:37;;;;;;;13.00;7.20;;;22.60;51.40;;;;;;3111831;28;20084;-90
2021/10/09 07:45:09;;;;;;;30.00;7.82;;;22.50;51.90;;;;;;3107463;28;20449;-90
2021/10/09 07:46:41;;;;;;;20.77;7.50;;;22.50;52.40;;;;;;3111691;28;20068;-89
2021/10/09 07:48:13;;;;;;;23.70;7.50;;;22.60;52.50;;;;;;3112125;28;20332;-91
2021/10/09 07:49:44;;;;;;;15.82;7.85;;;22.60;52.50;;;;;;3110946;28;20049;-90
2021/10/09 07:51:17;;;;;;;20.40;9.00;;;22.70;52.40;;;;;;3112350;28;20064;-92
2021/10/09 07:52:49;;;;;;;22.38;9.57;;;22.70;52.40;;;;;;3112281;28;20482;-92
2021/10/09 07:54:21;;;;;;;25.17;10.07;;;22.70;52.30;;;;;;3111836;28;20065;-93
2021/10/09 07:55:52;;;;;;;27.80;10.27;;;22.70;52.40;;;;;;3113346;28;20100;-91
2021/10/09 07:57:24;;;;;;;31.00;9.85;;;22.70;52.20;;;;;;3112355;28;20479;-92
2021/10/09 07:58:58;;;;;;;24.95;9.75;;;22.70;52.50;;;;;;3112255;28;20050;-92
2021/10/09 08:00:30;;;;;;;24.73;9.43;;;22.60;52.30;;;;;;3112031;28;20034;-93
2021/10/09 08:02:03;;;;;;;25.15;8.90;;;22.60;52.10;;;;;;3114972;28;20060;-90
2021/10/09 08:03:36;;;;;;;16.45;9.20;;;22.70;52.50;;;;;;3100636;28;20077;-91
2021/10/09 08:05:16;;;;;;;21.38;8.93;;;22.70;51.50;;;;;;3107422;28;20045;-92
2021/10/09 08:06:50;;;;;;;26.40;9.15;;;22.70;51.30;;;;;;3114976;28;20117;-90
2021/10/09 08:08:22;;;;;;;23.02;8.57;;;22.80;51.00;;;;;;3112568;28;20054;-93
2021/10/09 08:09:55;;;;;;;20.80;8.38;;;22.70;50.70;;;;;;3103877;28;20112;-92
2021/10/09 08:11:40;;;;;;;15.70;8.07;;;22.80;50.70;;;;;;3112815;28;20558;-92
2021/10/09 08:13:29;;;;;;;23.95;8.65;;;22.80;50.60;;;;;;3112963;28;20054;-92
2021/10/09 08:15:15;;;;;;;19.67;8.32;;;22.80;50.50;;;;;;3111788;28;20475;-92
2021/10/09 08:16:47;;;;;;;19.00;8.43;;;22.80;50.60;;;;;;3111939;28;20100;-92
2021/10/09 08:18:19;;;;;;;23.55;8.43;;;22.80;50.60;;;;;;3112330;28;20046;-92
2021/10/09 08:19:52;;;;;;;26.55;7.75;;;22.80;50.50;;;;;;3101593;28;20066;-91
2021/10/09 08:21:26;;;;;;;24.33;8.20;;;22.80;50.80;;;;;;3100078;28;20140;-92
2021/10/09 08:23:01;;;;;;;30.33;8.13;;;22.80;51.00;;;;;;3100119;28;20050;-90
2021/10/09 08:24:37;;;;;;;23.00;8.75;;;22.80;51.50;;;;;;3099391;28;20118;-91
2021/10/09 08:26:40;;;;;;;38.50;8.35;;;22.80;51.40;;;;;;3112281;28;20046;-93
2021/10/09 08:35:39;;;;;;;21.90;7.78;;;22.70;50.40;;;;;;3099315;28;20121;-92
2021/10/09 08:37:31;;;;;;;18.48;7.47;;;22.70;50.40;;;;;;3099726;28;20109;-91
2021/10/09 08:39:03;;;;;;;21.85;7.10;;;22.80;50.50;;;;;;3101967;28;20097;-91
2021/10/09 08:40:34;;;;;;;14.55;6.88;;;22.80;50.40;;;;;;3111729;28;20510;-91
2021/10/09 08:42:06;;;;;;;16.35;6.68;;;22.90;50.30;;;;;;3111604;28;20092;-91
2021/10/09 08:43:38;;;;;;;14.10;6.90;;;22.90;50.30;;;;;;3111857;28;20057;-91
2021/10/09 08:45:13;;;;;;;13.70;6.80;;;22.90;50.30;;;;;;3099298;28;20050;-91
2021/10/09 08:46:44;;;;;;;18.45;6.63;;;22.90;50.40;;;;;;3111920;28;20140;-91
2021/10/09 08:48:17;;;;;;;15.20;6.90;;;22.90;50.40;;;;;;3111751;28;20046;-92
2021/10/09 08:49:52;;;;;;;13.48;6.82;;;22.90;50.50;;;;;;3111129;28;20056;-91
2021/10/09 08:51:25;;;;;;;13.63;6.85;;;22.90;50.60;;;;;;3111538;28;20049;-92
2021/10/09 08:52:58;;;;;;;13.77;6.60;;;22.90;50.80;;;;;;3111635;28;20487;-91
2021/10/09 08:54:34;;;;;;;15.70;6.95;;;22.80;50.80;;;;;;3104695;28;20145;-93
2021/10/09 08:56:06;;;;;;;14.55;6.55;;;22.80;51.00;;;;;;3099677;28;20124;-91
2021/10/09 08:57:38;;;;;;;12.63;6.53;;;22.80;51.00;;;;;;3099615;28;20081;-91
2021/10/09 08:59:16;;;;;;;13.73;6.82;;;22.80;51.10;;;;;;3102567;28;20049;-91
2021/10/09 09:00:58;;;;;;;12.10;6.45;;;22.80;51.30;;;;;;3110731;28;20108;-91
2021/10/09 09:02:33;;;;;;;14.25;6.55;;;22.70;51.40;;;;;;3111478;28;20042;-91
2021/10/09 09:04:14;;;;;;;13.95;7.47;;;22.70;51.50;;;;;;3111108;28;20514;-92
2021/10/09 09:06:06;;;;;;;15.63;6.70;;;22.70;51.70;;;;;;3111192;28;20068;-91
2021/10/09 09:26:45;;;;;;;11.32;6.35;;;22.70;52.50;;;;;;3111379;28;20046;-91
2021/10/09 09:32:14;;;;;;;9.35;6.22;;;22.80;52.30;;;;;;3111197;28;20491;-91
2021/10/09 09:34:04;;;;;;;11.50;6.13;;;22.90;52.30;;;;;;3110552;28;20054;-90
2021/10/09 09:35:46;;;;;;;9.55;6.25;;;22.90;52.30;;;;;;3111013;28;20084;-90